Time;durP1;ratioP1;P1;durP2;ratioP2;P2;SDS_P1;SDS_P2;PMS_P1;PMS_P2;Temp;Humidity;BMP_temperature;BMP_pressure;BME280_temperature;BME280_humidity;BME280_pressure;Samples;Min_cycle;Max_cycle;Signal;HPM_P1;HPM_P2
2021/03/22 00:01:01;;;;;;;26.80;4.70;;;;;;;;;;5096586;28;20262;-47
2021/03/22 00:03:29;;;;;;;21.33;6.40;;;;;;;;;;5096437;28;20174;-52
2021/03/22 00:06:03;;;;;;;12.93;3.50;;;;;;;;;;5095849;28;20249;-50
2021/03/22 00:08:30;;;;;;;19.35;4.60;;;;;;;;;;5095999;28;20221;-49
2021/03/22 00:10:57;;;;;;;30.13;5.80;;;;;;;;;;5096194;28;20209;-51
2021/03/22 00:13:25;;;;;;;24.05;4.95;;;;;;;;;;5096317;28;20190;-54
2021/03/22 00:15:55;;;;;;;21.58;5.15;;;;;;;;;;5096720;28;20190;-53
2021/03/22 00:18:39;;;;;;;23.67;5.97;;;;;;;;;;5097110;28;20202;-50
2021/03/22 00:21:07;;;;;;;28.73;4.68;;;;;;;;;;5096084;28;20190;-57
2021/03/22 00:23:34;;;;;;;17.25;5.55;;;;;;;;;;5096619;28;20193;-54
2021/03/22 00:29:10;;;;;;;17.48;5.45;;;;;;;;;;5096356;28;20216;-49
2021/03/22 00:31:36;;;;;;;22.83;4.90;;;;;;;;;;5114932;28;20207;-57
2021/03/22 00:34:04;;;;;;;22.08;6.07;;;;;;;;;;5116922;28;20185;-51
2021/03/22 00:36:33;;;;;;;26.13;7.38;;;;;;;;;;5116330;28;20189;-57
2021/03/22 00:39:00;;;;;;;13.10;4.45;;;;;;;;;;5116154;28;20201;-50
2021/03/22 00:41:27;;;;;;;17.25;4.60;;;;;;;;;;5116127;28;20173;-49
2021/03/22 00:44:07;;;;;;;20.33;4.63;;;;;;;;;;5116732;28;20189;-52
2021/03/22 00:46:34;;;;;;;30.83;5.68;;;;;;;;;;5116160;28;20200;-48
2021/03/22 00:49:01;;;;;;;15.10;4.63;;;;;;;;;;5115763;28;20208;-50
2021/03/22 00:54:32;;;;;;;25.40;4.95;;;;;;;;;;5097247;28;20239;-47
2021/03/22 00:56:59;;;;;;;28.15;7.55;;;;;;;;;;5099888;28;20232;-51
2021/03/22 00:59:42;;;;;;;23.98;4.97;;;;;;;;;;5099755;28;20182;-52
2021/03/22 01:02:09;;;;;;;27.60;4.78;;;;;;;;;;5100325;28;20217;-52
2021/03/22 01:04:36;;;;;;;20.95;4.78;;;;;;;;;;5099620;28;20205;-52
2021/03/22 01:07:17;;;;;;;31.05;6.45;;;;;;;;;;5100314;28;20272;-50
2021/03/22 01:09:45;;;;;;;21.25;4.43;;;;;;;;;;5100031;28;20213;-52
2021/03/22 01:12:12;;;;;;;18.88;4.15;;;;;;;;;;5099536;28;20197;-53
2021/03/22 01:15:10;;;;;;;15.75;4.40;;;;;;;;;;5099258;28;20228;-55
2021/03/22 01:17:37;;;;;;;26.23;4.75;;;;;;;;;;5099388;28;20216;-54
2021/03/22 01:20:06;;;;;;;21.92;4.90;;;;;;;;;;5099608;28;20257;-48
2021/03/22 01:22:52;;;;;;;23.58;5.07;;;;;;;;;;5099112;28;20197;-52
2021/03/22 01:25:20;;;;;;;25.85;4.88;;;;;;;;;;5099129;28;20198;-50
2021/03/22 01:27:49;;;;;;;22.85;4.85;;;;;;;;;;5099072;28;20213;-53
2021/03/22 01:30:35;;;;;;;14.80;3.95;;;;;;;;;;5099000;28;20210;-49
2021/03/22 01:33:04;;;;;;;21.00;5.05;;;;;;;;;;5098892;28;20213;-49
2021/03/22 01:35:31;;;;;;;19.90;7.00;;;;;;;;;;5098855;28;20213;-50
2021/03/22 01:37:58;;;;;;;28.98;6.15;;;;;;;;;;5098796;28;20269;-55
2021/03/22 01:40:32;;;;;;;24.52;4.57;;;;;;;;;;5099089;28;20185;-51
2021/03/22 01:43:27;;;;;;;17.92;4.65;;;;;;;;;;5099295;28;20170;-51
2021/03/22 01:45:54;;;;;;;18.35;4.65;;;;;;;;;;5099324;28;20210;-51
2021/03/22 01:48:21;;;;;;;22.25;4.82;;;;;;;;;;5099325;28;20252;-51
2021/03/22 01:51:20;;;;;;;19.50;5.03;;;;;;;;;;5099361;28;20212;-60
2021/03/22 01:53:47;;;;;;;23.30;4.60;;;;;;;;;;5099329;28;20236;-53
2021/03/22 01:56:21;;;;;;;21.17;4.47;;;;;;;;;;5099239;28;20190;-50
2021/03/22 01:58:48;;;;;;;23.20;4.10;;;;;;;;;;5098949;28;20198;-52
2021/03/22 02:01:15;;;;;;;15.43;5.22;;;;;;;;;;5099203;28;20221;-56
2021/03/22 02:03:42;;;;;;;19.75;4.82;;;;;;;;;;5098965;28;20197;-54
2021/03/22 02:06:10;;;;;;;21.10;3.97;;;;;;;;;;5098115;28;20190;-52
2021/03/22 02:08:38;;;;;;;21.23;4.72;;;;;;;;;;5098730;28;20221;-53
2021/03/22 02:11:06;;;;;;;25.38;5.32;;;;;;;;;;5098734;28;20201;-50
2021/03/22 02:13:35;;;;;;;27.20;6.22;;;;;;;;;;5098904;28;20209;-55
2021/03/22 02:16:05;;;;;;;25.25;4.57;;;;;;;;;;5098560;28;20269;-49
2021/03/22 02:18:52;;;;;;;20.35;5.13;;;;;;;;;;5098616;28;20254;-53
2021/03/22 02:21:38;;;;;;;17.60;4.50;;;;;;;;;;5098669;28;20262;-51
2021/03/22 02:24:37;;;;;;;22.00;5.25;;;;;;;;;;5098398;28;20200;-53
2021/03/22 02:27:21;;;;;;;26.73;5.47;;;;;;;;;;5098073;28;20205;-55
2021/03/22 02:30:03;;;;;;;23.60;5.57;;;;;;;;;;5097774;28;20229;-53
2021/03/22 02:32:47;;;;;;;32.28;6.05;;;;;;;;;;5098747;28;20182;-55
2021/03/22 02:35:19;;;;;;;14.07;4.72;;;;;;;;;;5098780;28;20190;-52
2021/03/22 02:37:54;;;;;;;26.65;4.80;;;;;;;;;;5098630;28;20197;-51
2021/03/22 02:40:26;;;;;;;24.02;4.75;;;;;;;;;;5098386;28;20216;-51
2021/03/22 02:42:53;;;;;;;20.67;3.90;;;;;;;;;;5098803;28;20181;-51
2021/03/22 02:48:25;;;;;;;25.70;5.70;;;;;;;;;;5096516;28;20239;-53
2021/03/22 02:50:55;;;;;;;16.65;7.18;;;;;;;;;;5098335;28;20306;-50
2021/03/22 02:53:44;;;;;;;13.27;3.50;;;;;;;;;;5098031;28;20193;-51
2021/03/22 02:56:17;;;;;;;15.23;5.72;;;;;;;;;;5097836;28;20206;-52
2021/03/22 02:59:04;;;;;;;15.27;4.28;;;;;;;;;;5096298;28;20186;-53
2021/03/22 03:01:33;;;;;;;25.80;4.45;;;;;;;;;;5097496;28;20190;-50
2021/03/22 03:04:01;;;;;;;24.23;5.60;;;;;;;;;;5097719;28;20186;-55
2021/03/22 03:06:45;;;;;;;18.83;5.93;;;;;;;;;;5097654;28;20233;-49
2021/03/22 03:09:12;;;;;;;16.60;4.75;;;;;;;;;;5097259;28;20228;-53
2021/03/22 03:11:56;;;;;;;21.00;4.82;;;;;;;;;;5097886;28;20193;-51
2021/03/22 03:14:24;;;;;;;24.48;4.57;;;;;;;;;;5098056;28;20190;-52
2021/03/22 03:16:51;;;;;;;12.55;5.00;;;;;;;;;;5097724;28;20212;-52
2021/03/22 03:19:29;;;;;;;18.65;4.90;;;;;;;;;;5097962;28;20201;-54
2021/03/22 03:21:56;;;;;;;15.73;4.55;;;;;;;;;;5110451;28;20233;-49
2021/03/22 03:24:23;;;;;;;18.02;5.47;;;;;;;;;;5117953;28;20204;-48
2021/03/22 03:27:27;;;;;;;31.23;6.10;;;;;;;;;;5111011;28;20185;-47
2021/03/22 03:29:54;;;;;;;25.67;6.82;;;;;;;;;;5101294;28;20233;-56
2021/03/22 03:32:22;;;;;;;38.45;7.40;;;;;;;;;;5097360;28;20194;-57
2021/03/22 03:34:49;;;;;;;27.40;8.48;;;;;;;;;;5097621;28;20203;-56
2021/03/22 03:37:17;;;;;;;20.48;5.20;;;;;;;;;;5097030;28;20183;-53
2021/03/22 03:39:44;;;;;;;20.25;5.65;;;;;;;;;;5097300;28;20179;-46
2021/03/22 03:42:30;;;;;;;24.90;5.63;;;;;;;;;;5097493;28;20194;-55
2021/03/22 03:44:57;;;;;;;31.73;8.38;;;;;;;;;;5091328;28;20209;-52
2021/03/22 03:47:23;;;;;;;20.70;6.13;;;;;;;;;;5097175;28;20198;-55
2021/03/22 03:49:58;;;;;;;22.17;6.15;;;;;;;;;;5097066;28;20256;-53
2021/03/22 03:52:25;;;;;;;23.55;6.63;;;;;;;;;;5097263;28;20189;-46
2021/03/22 03:54:52;;;;;;;20.67;6.25;;;;;;;;;;5097056;28;20194;-53
2021/03/22 03:58:06;;;;;;;22.15;8.07;;;;;;;;;;5096906;28;20209;-57
2021/03/22 04:00:34;;;;;;;16.92;7.68;;;;;;;;;;5096827;28;20245;-60
2021/03/22 04:03:15;;;;;;;37.38;10.52;;;;;;;;;;5097007;28;20186;-48
2021/03/22 04:05:57;;;;;;;29.17;9.45;;;;;;;;;;5077026;28;20325;-52
2021/03/22 04:08:25;;;;;;;29.05;10.13;;;;;;;;;;5076876;28;20218;-54
2021/03/22 04:10:52;;;;;;;20.00;9.43;;;;;;;;;;5076575;28;20190;-55
2021/03/22 04:13:19;;;;;;;22.45;9.77;;;;;;;;;;5085801;28;20213;-56
2021/03/22 04:15:48;;;;;;;27.05;10.57;;;;;;;;;;5117374;28;20174;-57
2021/03/22 04:18:14;;;;;;;32.42;11.65;;;;;;;;;;5117083;28;20200;-50
2021/03/22 04:24:02;;;;;;;25.13;11.48;;;;;;;;;;5111658;28;20303;-51
2021/03/22 04:26:31;;;;;;;20.77;11.15;;;;;;;;;;5094835;28;20296;-51
2021/03/22 04:28:58;;;;;;;41.65;12.70;;;;;;;;;;5096191;28;20289;-51
2021/03/22 04:31:57;;;;;;;21.00;11.23;;;;;;;;;;5096623;28;20193;-51
2021/03/22 04:34:24;;;;;;;36.78;11.70;;;;;;;;;;5096157;28;20190;-50
2021/03/22 04:36:51;;;;;;;36.75;10.68;;;;;;;;;;5096717;28;20186;-48
2021/03/22 04:42:22;;;;;;;32.80;12.82;;;;;;;;;;5104137;28;20317;-48
2021/03/22 04:44:49;;;;;;;28.30;10.98;;;;;;;;;;5116063;28;20231;-56
2021/03/22 04:47:53;;;;;;;22.55;10.65;;;;;;;;;;5116661;28;20170;-53
2021/03/22 04:50:21;;;;;;;27.45;12.07;;;;;;;;;;5116232;28;20209;-54
2021/03/22 04:52:48;;;;;;;40.85;15.30;;;;;;;;;;5116645;28;20197;-52
2021/03/22 04:55:44;;;;;;;30.55;11.65;;;;;;;;;;5116529;28;20204;-53
2021/03/22 04:58:12;;;;;;;26.35;11.43;;;;;;;;;;5114511;28;20193;-50
2021/03/22 05:00:44;;;;;;;24.83;11.88;;;;;;;;;;5113672;28;20193;-51
2021/03/22 05:03:15;;;;;;;24.70;10.48;;;;;;;;;;5116457;28;20236;-55
2021/03/22 05:05:42;;;;;;;24.05;11.38;;;;;;;;;;5106309;28;20210;-52
2021/03/22 05:11:15;;;;;;;29.73;10.77;;;;;;;;;;5106322;28;20228;-51
2021/03/22 05:13:42;;;;;;;33.38;10.48;;;;;;;;;;5096389;28;20186;-58
2021/03/22 05:16:13;;;;;;;23.95;10.60;;;;;;;;;;5095423;28;20217;-52
2021/03/22 05:18:40;;;;;;;37.70;10.10;;;;;;;;;;5096429;28;20220;-57
2021/03/22 05:21:08;;;;;;;14.18;5.80;;;;;;;;;;5096295;28;20194;-58
2021/03/22 05:23:55;;;;;;;17.30;6.53;;;;;;;;;;5095427;28;20190;-53
2021/03/22 05:26:25;;;;;;;30.23;8.07;;;;;;;;;;5096028;28;20186;-54
2021/03/22 05:28:52;;;;;;;17.77;6.90;;;;;;;;;;5095940;28;20281;-49
2021/03/22 05:31:19;;;;;;;24.25;8.05;;;;;;;;;;5095790;28;20224;-52
2021/03/22 05:33:46;;;;;;;16.63;7.15;;;;;;;;;;5096230;28;20198;-52
2021/03/22 05:36:13;;;;;;;27.25;9.48;;;;;;;;;;5095852;28;20193;-55
2021/03/22 05:41:47;;;;;;;22.55;8.23;;;;;;;;;;5098275;28;20173;-53
2021/03/22 05:44:19;;;;;;;31.30;10.93;;;;;;;;;;5099520;28;20213;-49
2021/03/22 05:47:08;;;;;;;32.95;8.88;;;;;;;;;;5083181;28;20205;-57
2021/03/22 05:49:41;;;;;;;22.13;7.90;;;;;;;;;;5101421;28;20237;-53
2021/03/22 05:52:23;;;;;;;26.42;9.40;;;;;;;;;;5119339;28;20201;-49
2021/03/22 05:55:01;;;;;;;16.48;7.60;;;;;;;;;;5119230;28;20193;-55
2021/03/22 05:57:35;;;;;;;24.52;8.30;;;;;;;;;;5113271;28;20393;-50
2021/03/22 06:00:22;;;;;;;24.50;7.68;;;;;;;;;;5109436;28;20197;-54
2021/03/22 06:02:54;;;;;;;29.67;7.75;;;;;;;;;;5119445;28;20201;-54
2021/03/22 06:05:44;;;;;;;24.15;6.97;;;;;;;;;;5114513;28;20189;-56
2021/03/22 06:08:33;;;;;;;14.50;7.57;;;;;;;;;;5109209;28;20194;-55
2021/03/22 06:11:01;;;;;;;18.13;7.13;;;;;;;;;;5118453;28;20211;-55
2021/03/22 06:13:29;;;;;;;17.80;7.65;;;;;;;;;;5119425;28;20189;-53
2021/03/22 06:15:59;;;;;;;25.13;10.10;;;;;;;;;;5118909;28;20338;-57
2021/03/22 06:18:30;;;;;;;28.98;8.98;;;;;;;;;;5118597;28;20173;-55
2021/03/22 06:21:04;;;;;;;20.10;7.55;;;;;;;;;;5098095;28;20175;-53
2021/03/22 06:23:35;;;;;;;26.38;8.30;;;;;;;;;;5113057;28;20252;-55
2021/03/22 06:26:03;;;;;;;19.65;8.48;;;;;;;;;;5107551;28;20202;-59
2021/03/22 06:28:31;;;;;;;16.02;8.13;;;;;;;;;;5119381;28;20213;-54
2021/03/22 06:31:04;;;;;;;30.92;9.27;;;;;;;;;;5111449;28;20193;-56
2021/03/22 06:34:00;;;;;;;19.48;7.78;;;;;;;;;;5118135;28;20185;-57
2021/03/22 06:36:29;;;;;;;29.02;9.88;;;;;;;;;;5117998;28;20182;-49
2021/03/22 06:38:57;;;;;;;24.33;8.75;;;;;;;;;;5118539;28;20205;-55
2021/03/22 06:41:40;;;;;;;24.10;9.15;;;;;;;;;;5117854;28;20189;-54
2021/03/22 06:44:09;;;;;;;17.75;7.55;;;;;;;;;;5118168;28;20273;-54
2021/03/22 06:46:36;;;;;;;22.73;8.70;;;;;;;;;;5117735;28;20189;-51
2021/03/22 06:49:07;;;;;;;19.65;8.10;;;;;;;;;;5115121;28;20271;-58
2021/03/22 06:51:34;;;;;;;20.42;9.30;;;;;;;;;;5095879;28;20210;-54
2021/03/22 06:54:28;;;;;;;17.80;8.88;;;;;;;;;;5108140;28;20193;-51
2021/03/22 06:57:03;;;;;;;31.40;10.45;;;;;;;;;;5118348;28;20177;-57
2021/03/22 06:59:36;;;;;;;21.15;9.98;;;;;;;;;;5116408;28;20200;-53
2021/03/22 07:02:15;;;;;;;20.45;9.65;;;;;;;;;;5117140;28;20189;-53
2021/03/22 07:04:42;;;;;;;23.95;10.55;;;;;;;;;;5117005;28;20201;-56
2021/03/22 07:07:12;;;;;;;22.45;11.05;;;;;;;;;;5117481;28;20255;-54
2021/03/22 07:09:40;;;;;;;24.42;11.25;;;;;;;;;;5117508;28;20217;-56
2021/03/22 07:12:20;;;;;;;20.35;11.27;;;;;;;;;;5117365;28;20229;-58
2021/03/22 07:14:54;;;;;;;28.98;12.32;;;;;;;;;;5101791;28;20205;-55
2021/03/22 07:20:25;;;;;;;23.95;12.63;;;;;;;;;;5095054;28;20188;-51
2021/03/22 07:23:06;;;;;;;28.75;13.65;;;;;;;;;;5096813;28;20170;-50
2021/03/22 07:25:46;;;;;;;25.73;12.40;;;;;;;;;;5096876;28;20217;-56
2021/03/22 07:28:17;;;;;;;27.70;13.65;;;;;;;;;;5096038;28;20232;-47
2021/03/22 07:30:50;;;;;;;31.60;14.43;;;;;;;;;;5095927;28;20193;-53
2021/03/22 07:33:38;;;;;;;26.60;13.00;;;;;;;;;;5094958;28;20236;-53
2021/03/22 07:36:31;;;;;;;25.05;12.10;;;;;;;;;;5096485;28;20209;-59
2021/03/22 07:42:20;;;;;;;33.50;12.73;;;;;;;;;;5092345;28;20305;-51
2021/03/22 07:45:02;;;;;;;23.75;13.02;;;;;;;;;;5133163;28;20196;-51
2021/03/22 07:47:37;;;;;;;30.17;15.45;;;;;;;;;;5137491;28;20219;-53
2021/03/22 07:50:17;;;;;;;38.78;15.07;;;;;;;;;;5137118;28;20394;-59
2021/03/22 07:52:50;;;;;;;34.72;14.13;;;;;;;;;;5137139;28;20180;-46
2021/03/22 07:55:33;;;;;;;33.90;15.70;;;;;;;;;;5136314;28;20234;-55
2021/03/22 07:58:20;;;;;;;32.35;13.77;;;;;;;;;;5136869;28;20196;-56
2021/03/22 08:00:51;;;;;;;22.48;11.23;;;;;;;;;;5136672;28;20191;-55
2021/03/22 08:03:24;;;;;;;27.63;13.10;;;;;;;;;;5115400;28;20193;-56
2021/03/22 08:06:18;;;;;;;28.17;12.75;;;;;;;;;;5116421;28;20200;-56
2021/03/22 08:08:55;;;;;;;28.48;14.32;;;;;;;;;;5115765;28;20225;-54
2021/03/22 08:11:26;;;;;;;37.20;16.15;;;;;;;;;;5116145;28;20243;-55
2021/03/22 08:14:10;;;;;;;29.50;14.00;;;;;;;;;;5115804;28;20185;-57
2021/03/22 08:16:48;;;;;;;33.40;15.73;;;;;;;;;;5118028;28;20201;-56
2021/03/22 08:19:22;;;;;;;32.83;16.85;;;;;;;;;;5136700;28;20217;-56
2021/03/22 08:21:56;;;;;;;31.13;15.88;;;;;;;;;;5130965;28;20193;-49
2021/03/22 08:24:27;;;;;;;21.05;13.80;;;;;;;;;;5115994;28;20200;-56
2021/03/22 08:26:57;;;;;;;26.60;14.30;;;;;;;;;;5115311;28;20189;-49
2021/03/22 08:29:41;;;;;;;40.65;17.13;;;;;;;;;;5115545;28;20201;-55
2021/03/22 08:32:29;;;;;;;28.58;16.15;;;;;;;;;;5113849;28;20232;-55
2021/03/22 08:35:02;;;;;;;32.22;15.95;;;;;;;;;;5115897;28;20337;-49
2021/03/22 08:37:34;;;;;;;25.67;14.95;;;;;;;;;;5115753;28;20197;-56
2021/03/22 08:40:25;;;;;;;34.72;15.63;;;;;;;;;;5115985;28;20201;-53
2021/03/22 08:43:06;;;;;;;35.25;16.40;;;;;;;;;;5098479;28;20262;-52
2021/03/22 08:45:40;;;;;;;39.83;16.48;;;;;;;;;;5115489;28;20261;-58
2021/03/22 08:48:10;;;;;;;32.75;14.32;;;;;;;;;;5115355;28;20173;-50
2021/03/22 08:50:38;;;;;;;26.15;14.60;;;;;;;;;;5115588;28;20286;-53
2021/03/22 08:53:06;;;;;;;28.90;16.90;;;;;;;;;;5115983;28;20197;-48
2021/03/22 08:58:39;;;;;;;25.85;17.65;;;;;;;;;;5116044;28;20175;-54
2021/03/22 09:01:29;;;;;;;32.60;18.17;;;;;;;;;;5115851;28;20193;-54
2021/03/22 09:07:22;;;;;;;40.10;18.92;;;;;;;;;;5113702;28;20290;-54
2021/03/22 09:09:53;;;;;;;32.72;16.15;;;;;;;;;;5115325;28;20229;-52
2021/03/22 09:12:50;;;;;;;38.25;15.82;;;;;;;;;;5115247;28;20194;-54
2021/03/22 09:15:22;;;;;;;30.08;12.70;;;;;;;;;;5115146;28;20303;-52
2021/03/22 09:18:16;;;;;;;21.30;14.57;;;;;;;;;;5119430;28;20185;-54
2021/03/22 09:21:02;;;;;;;26.50;13.43;;;;;;;;;;5052747;28;20206;-59
2021/03/22 09:23:53;;;;;;;22.33;12.85;;;;;;;;;;5081710;28;20213;-53
2021/03/22 09:26:41;;;;;;;18.95;13.25;;;;;;;;;;5105888;28;20190;-54
2021/03/22 09:29:33;;;;;;;24.33;13.75;;;;;;;;;;5119137;28;20224;-56
2021/03/22 09:32:01;;;;;;;19.00;10.50;;;;;;;;;;5119300;28;20197;-52
2021/03/22 09:34:45;;;;;;;20.35;10.80;;;;;;;;;;5119096;28;20245;-53
2021/03/22 09:40:42;;;;;;;21.60;9.02;;;;;;;;;;5105683;28;20176;-54
2021/03/22 09:43:29;;;;;;;14.23;9.00;;;;;;;;;;5118934;28;20193;-54
2021/03/22 09:46:21;;;;;;;12.90;8.82;;;;;;;;;;5119134;28;20189;-58
2021/03/22 09:49:07;;;;;;;13.63;8.10;;;;;;;;;;5118809;28;20265;-51
2021/03/22 09:51:41;;;;;;;15.70;9.73;;;;;;;;;;5116457;28;20241;-53
2021/03/22 09:54:18;;;;;;;15.40;11.65;;;;;;;;;;5097701;28;20198;-56
2021/03/22 09:57:18;;;;;;;23.13;12.00;;;;;;;;;;5114568;28;20192;-53
2021/03/22 10:00:00;;;;;;;23.67;9.45;;;;;;;;;;5055947;28;20199;-55
2021/03/22 10:02:42;;;;;;;12.48;8.60;;;;;;;;;;5060062;28;20217;-60
2021/03/22 10:05:15;;;;;;;13.45;8.43;;;;;;;;;;5106451;28;20181;-55
2021/03/22 10:07:44;;;;;;;18.67;7.43;;;;;;;;;;5117959;28;20193;-53
2021/03/22 10:10:32;;;;;;;13.38;7.90;;;;;;;;;;5117469;28;20221;-56
2021/03/22 10:13:01;;;;;;;16.75;8.20;;;;;;;;;;5110580;28;20216;-54
2021/03/22 10:15:30;;;;;;;14.18;7.57;;;;;;;;;;5119286;28;20308;-60
2021/03/22 10:18:03;;;;;;;12.07;8.13;;;;;;;;;;5119149;28;20268;-58
2021/03/22 10:20:35;;;;;;;11.25;7.15;;;;;;;;;;5118895;28;20193;-51
2021/03/22 10:23:18;;;;;;;13.68;7.05;;;;;;;;;;5101294;28;20257;-54
2021/03/22 10:25:47;;;;;;;9.23;6.15;;;;;;;;;;5113142;28;20296;-49
2021/03/22 10:28:23;;;;;;;12.05;6.78;;;;;;;;;;5118287;28;20235;-57
2021/03/22 10:31:00;;;;;;;9.70;6.95;;;;;;;;;;5118622;28;20227;-50
2021/03/22 10:33:28;;;;;;;11.52;6.07;;;;;;;;;;5100220;28;20207;-59
2021/03/22 10:35:58;;;;;;;13.98;5.95;;;;;;;;;;5118034;28;20200;-55
2021/03/22 10:38:42;;;;;;;10.95;6.25;;;;;;;;;;5115411;28;20213;-51
2021/03/22 10:41:31;;;;;;;9.20;5.95;;;;;;;;;;5117741;28;20219;-57
2021/03/22 10:43:58;;;;;;;12.23;6.78;;;;;;;;;;5109594;28;20228;-51
2021/03/22 10:46:27;;;;;;;17.17;8.40;;;;;;;;;;5116034;28;20240;-52
2021/03/22 10:49:19;;;;;;;15.60;8.50;;;;;;;;;;5115891;28;20235;-50
2021/03/22 10:51:56;;;;;;;15.95;8.38;;;;;;;;;;5113424;28;20224;-55
2021/03/22 10:54:46;;;;;;;14.02;8.25;;;;;;;;;;5116244;28;20192;-56
2021/03/22 10:57:20;;;;;;;11.07;8.40;;;;;;;;;;5113872;28;20253;-58
2021/03/22 10:59:49;;;;;;;16.60;8.63;;;;;;;;;;5115187;28;20184;-54
2021/03/22 11:02:21;;;;;;;13.82;7.70;;;;;;;;;;5096296;28;20197;-57
2021/03/22 11:04:48;;;;;;;14.65;8.05;;;;;;;;;;5114586;28;20224;-50
2021/03/22 11:07:18;;;;;;;20.92;7.85;;;;;;;;;;5095426;28;20231;-54
2021/03/22 11:09:57;;;;;;;18.95;8.80;;;;;;;;;;5112158;28;20217;-57
2021/03/22 11:12:38;;;;;;;13.90;8.27;;;;;;;;;;5115778;28;20200;-56
2021/03/22 11:15:07;;;;;;;14.63;7.53;;;;;;;;;;5116826;28;20189;-55
2021/03/22 11:17:34;;;;;;;16.02;7.38;;;;;;;;;;5115459;28;20186;-54
2021/03/22 11:20:07;;;;;;;12.45;7.35;;;;;;;;;;5116267;28;20181;-54
2021/03/22 11:22:34;;;;;;;13.93;6.68;;;;;;;;;;5117075;28;20254;-46
2021/03/22 11:25:06;;;;;;;11.45;7.05;;;;;;;;;;5115527;28;20269;-55
2021/03/22 11:27:52;;;;;;;11.18;6.70;;;;;;;;;;5115121;28;20201;-54
2021/03/22 11:30:29;;;;;;;11.95;6.72;;;;;;;;;;5115066;28;20217;-51
2021/03/22 11:32:56;;;;;;;14.02;7.45;;;;;;;;;;5115395;28;20200;-54
2021/03/22 11:35:26;;;;;;;22.45;6.95;;;;;;;;;;5114362;28;20216;-48
2021/03/22 11:37:56;;;;;;;13.52;7.90;;;;;;;;;;5115273;28;20182;-59
2021/03/22 11:43:31;;;;;;;9.95;6.57;;;;;;;;;;5112712;28;20207;-55
2021/03/22 11:46:12;;;;;;;12.05;6.80;;;;;;;;;;5114923;28;20211;-56
2021/03/22 11:48:45;;;;;;;17.42;7.30;;;;;;;;;;5115315;28;20189;-52
2021/03/22 11:51:17;;;;;;;11.07;6.35;;;;;;;;;;5114520;28;20189;-53
2021/03/22 11:53:59;;;;;;;10.60;6.63;;;;;;;;;;5112888;28;20195;-53
2021/03/22 11:56:59;;;;;;;14.07;7.35;;;;;;;;;;5109492;28;20454;-53
2021/03/22 11:59:32;;;;;;;10.80;7.20;;;;;;;;;;5112884;28;20229;-50
2021/03/22 12:02:04;;;;;;;10.65;7.20;;;;;;;;;;5114400;28;20201;-53
2021/03/22 12:04:58;;;;;;;13.07;7.35;;;;;;;;;;5115045;28;20196;-54
2021/03/22 12:07:40;;;;;;;15.95;7.53;;;;;;;;;;5112257;28;20213;-53
2021/03/22 12:10:15;;;;;;;9.90;6.78;;;;;;;;;;5097709;28;20225;-55
2021/03/22 12:12:45;;;;;;;11.18;7.03;;;;;;;;;;5102133;28;20185;-52
2021/03/22 12:15:21;;;;;;;14.57;7.03;;;;;;;;;;5105899;28;20193;-53
2021/03/22 12:17:52;;;;;;;8.88;6.50;;;;;;;;;;5116222;28;20204;-53
2021/03/22 12:20:24;;;;;;;13.75;8.35;;;;;;;;;;5115405;28;20205;-54
2021/03/22 12:23:11;;;;;;;12.82;7.60;;;;;;;;;;5115050;28;20211;-52
2021/03/22 12:25:39;;;;;;;16.52;6.40;;;;;;;;;;5119867;28;20200;-51
2021/03/22 12:28:07;;;;;;;14.02;6.57;;;;;;;;;;5119224;28;20346;-59
2021/03/22 12:31:03;;;;;;;6.75;4.97;;;;;;;;;;5114628;28;20229;-59
2021/03/22 12:33:31;;;;;;;9.45;6.10;;;;;;;;;;5113165;28;20219;-51
2021/03/22 12:35:58;;;;;;;9.68;5.13;;;;;;;;;;5114777;28;20268;-53
2021/03/22 12:38:25;;;;;;;12.27;5.03;;;;;;;;;;5114719;28;20185;-51
2021/03/22 12:40:53;;;;;;;6.90;4.35;;;;;;;;;;5114365;28;20249;-51
2021/03/22 12:43:38;;;;;;;7.85;5.88;;;;;;;;;;5114707;28;20209;-56
2021/03/22 12:46:05;;;;;;;7.25;5.35;;;;;;;;;;5115340;28;20196;-52
2021/03/22 12:48:33;;;;;;;9.98;5.85;;;;;;;;;;5109659;28;20201;-54
2021/03/22 12:51:00;;;;;;;12.93;5.05;;;;;;;;;;5115734;28;20247;-56
2021/03/22 12:53:32;;;;;;;12.52;6.63;;;;;;;;;;5119351;28;20213;-49
2021/03/22 12:56:18;;;;;;;8.98;3.90;;;;;;;;;;5119623;28;20185;-54
2021/03/22 12:58:45;;;;;;;24.27;10.45;;;;;;;;;;5116300;28;20254;-57
2021/03/22 13:01:15;;;;;;;9.35;4.25;;;;;;;;;;5119039;28;20239;-53
2021/03/22 13:04:01;;;;;;;8.00;2.90;;;;;;;;;;5119032;28;20215;-56
2021/03/22 13:06:28;;;;;;;6.00;3.63;;;;;;;;;;5118370;28;20205;-52
2021/03/22 13:08:57;;;;;;;7.30;3.28;;;;;;;;;;5118646;28;20205;-53
2021/03/22 13:11:44;;;;;;;8.40;4.00;;;;;;;;;;5117916;28;20204;-56
2021/03/22 13:14:16;;;;;;;7.38;2.70;;;;;;;;;;5117679;28;20193;-57
2021/03/22 13:16:43;;;;;;;9.80;4.03;;;;;;;;;;5110104;28;20201;-55
2021/03/22 13:19:16;;;;;;;9.40;3.58;;;;;;;;;;5117698;28;20197;-54
2021/03/22 13:21:44;;;;;;;6.30;3.00;;;;;;;;;;5129071;28;20364;-55
2021/03/22 13:24:12;;;;;;;10.00;2.90;;;;;;;;;;5138817;28;20466;-57
2021/03/22 13:27:03;;;;;;;6.60;2.60;;;;;;;;;;5138641;28;20452;-57
2021/03/22 13:29:33;;;;;;;17.77;4.60;;;;;;;;;;5137296;28;20473;-52
2021/03/22 13:32:00;;;;;;;9.87;4.40;;;;;;;;;;5138146;28;20449;-58
2021/03/22 13:34:43;;;;;;;9.70;3.33;;;;;;;;;;5138443;28;20530;-53
2021/03/22 13:37:14;;;;;;;6.55;3.10;;;;;;;;;;5135150;28;20215;-52
2021/03/22 13:39:41;;;;;;;11.20;4.65;;;;;;;;;;5137572;28;20255;-55
2021/03/22 13:42:27;;;;;;;9.93;3.75;;;;;;;;;;5127465;28;20197;-48
2021/03/22 13:44:53;;;;;;;8.23;3.72;;;;;;;;;;5119938;28;20229;-53
2021/03/22 13:47:20;;;;;;;15.80;3.63;;;;;;;;;;5117382;28;20209;-55
2021/03/22 13:50:12;;;;;;;11.35;3.17;;;;;;;;;;5117266;28;20221;-55
2021/03/22 13:52:41;;;;;;;5.45;3.50;;;;;;;;;;5114213;28;20237;-53
2021/03/22 13:55:08;;;;;;;9.15;2.72;;;;;;;;;;5117034;28;20190;-53
2021/03/22 13:57:44;;;;;;;5.43;3.08;;;;;;;;;;5116816;28;20223;-53
2021/03/22 14:00:13;;;;;;;8.13;2.85;;;;;;;;;;5098369;28;20209;-57
2021/03/22 14:02:40;;;;;;;9.65;3.10;;;;;;;;;;5114908;28;20186;-55
2021/03/22 14:05:26;;;;;;;5.93;3.72;;;;;;;;;;5116617;28;20209;-53
2021/03/22 14:07:57;;;;;;;8.38;3.88;;;;;;;;;;5116955;28;20197;-56
2021/03/22 14:10:25;;;;;;;10.77;5.63;;;;;;;;;;5117200;28;20225;-57
2021/03/22 14:13:14;;;;;;;15.38;7.05;;;;;;;;;;5116588;28;20182;-52
2021/03/22 14:15:42;;;;;;;13.48;5.40;;;;;;;;;;5115983;28;20219;-53
2021/03/22 14:18:10;;;;;;;9.38;4.05;;;;;;;;;;5116631;28;20220;-55
2021/03/22 14:21:08;;;;;;;7.82;4.05;;;;;;;;;;5116516;28;20235;-51
2021/03/22 14:23:36;;;;;;;7.38;4.03;;;;;;;;;;5116245;28;20192;-53
2021/03/22 14:26:05;;;;;;;9.00;4.75;;;;;;;;;;5116466;28;20181;-53
2021/03/22 14:28:32;;;;;;;15.23;5.70;;;;;;;;;;5117168;28;20252;-57
2021/03/22 14:31:03;;;;;;;13.05;5.25;;;;;;;;;;5111115;28;20238;-52
2021/03/22 14:33:30;;;;;;;10.95;5.70;;;;;;;;;;5103629;28;20213;-56
2021/03/22 14:35:58;;;;;;;20.83;7.50;;;;;;;;;;5116475;28;20169;-52
2021/03/22 14:38:35;;;;;;;8.43;3.47;;;;;;;;;;5117048;28;20205;-54
2021/03/22 14:41:05;;;;;;;9.63;3.38;;;;;;;;;;5116671;28;20211;-55
2021/03/22 14:43:57;;;;;;;7.28;3.70;;;;;;;;;;5111345;28;20201;-56
2021/03/22 14:46:36;;;;;;;5.95;3.03;;;;;;;;;;5113034;28;20308;-55
2021/03/22 14:49:06;;;;;;;13.90;3.17;;;;;;;;;;5116158;28;20227;-53
2021/03/22 14:51:38;;;;;;;10.68;3.00;;;;;;;;;;5116555;28;20209;-57
2021/03/22 14:54:05;;;;;;;5.30;2.55;;;;;;;;;;5115672;28;20218;-55
2021/03/22 14:56:33;;;;;;;6.10;3.03;;;;;;;;;;5116572;28;20201;-59
2021/03/22 14:59:18;;;;;;;7.43;3.88;;;;;;;;;;5115377;28;20193;-47
2021/03/22 15:01:45;;;;;;;11.57;3.25;;;;;;;;;;5110202;28;20217;-56
2021/03/22 15:04:13;;;;;;;5.93;2.65;;;;;;;;;;5116910;28;20273;-55
2021/03/22 15:06:59;;;;;;;6.50;3.67;;;;;;;;;;5115780;28;20174;-54
2021/03/22 15:09:26;;;;;;;7.65;3.33;;;;;;;;;;5116133;28;20269;-59
2021/03/22 15:11:53;;;;;;;6.38;2.45;;;;;;;;;;5116196;28;20203;-53
2021/03/22 15:14:24;;;;;;;5.60;2.70;;;;;;;;;;5116197;28;20197;-57
2021/03/22 15:16:56;;;;;;;8.48;3.25;;;;;;;;;;5114214;28;20288;-57
2021/03/22 15:19:24;;;;;;;10.38;2.90;;;;;;;;;;5116034;28;20224;-55
2021/03/22 15:22:20;;;;;;;7.18;2.65;;;;;;;;;;5117227;28;20208;-54
2021/03/22 15:28:29;;;;;;;14.70;4.70;;;;;;;;;;4995243;28;20192;-56
2021/03/22 15:30:57;;;;;;;8.07;4.38;;;;;;;;;;5079425;28;20242;-53
2021/03/22 15:33:25;;;;;;;7.93;3.92;;;;;;;;;;5075472;28;20202;-57
2021/03/22 15:36:00;;;;;;;5.78;2.50;;;;;;;;;;5056513;28;20222;-56
2021/03/22 15:38:28;;;;;;;8.50;3.35;;;;;;;;;;5071569;28;20206;-57
2021/03/22 15:40:55;;;;;;;9.20;3.83;;;;;;;;;;5075209;28;20216;-56
2021/03/22 15:43:25;;;;;;;7.45;3.67;;;;;;;;;;5075220;28;20191;-55
2021/03/22 15:45:55;;;;;;;14.45;6.03;;;;;;;;;;5057978;28;20202;-54
2021/03/22 15:48:23;;;;;;;18.50;8.23;;;;;;;;;;5075237;28;20214;-57
2021/03/22 15:51:10;;;;;;;6.38;3.83;;;;;;;;;;5074789;28;20233;-58
2021/03/22 15:53:37;;;;;;;6.13;2.85;;;;;;;;;;5075258;28;20218;-55
2021/03/22 15:56:05;;;;;;;4.85;3.00;;;;;;;;;;5074415;28;20181;-57